Time;durP1;ratioP1;P1;durP2;ratioP2;P2;SDS_P1;SDS_P2;PMS_P1;PMS_P2;Temp;Humidity;BMP_temperature;BMP_pressure;BME280_temperature;BME280_humidity;BME280_pressure;Samples;Min_cycle;Max_cycle;Signal;HPM_P1;HPM_P2
2021/05/22 00:00:21;;;;;;;8.60;2.03;;;11.90;67.00;;;;;;5021848;28;20048;-71
2021/05/22 00:02:47;;;;;;;8.52;1.70;;;11.90;67.00;;;;;;5029872;28;20102;-70
2021/05/22 00:05:13;;;;;;;11.52;2.15;;;11.90;66.90;;;;;;5026821;28;20474;-71
2021/05/22 00:07:38;;;;;;;7.60;1.42;;;11.90;66.80;;;;;;5022473;28;20022;-70
2021/05/22 00:10:09;;;;;;;7.53;1.35;;;11.90;66.40;;;;;;5003987;28;20500;-71
2021/05/22 00:12:35;;;;;;;5.82;1.70;;;11.80;66.90;;;;;;5011329;28;20037;-70
2021/05/22 00:15:02;;;;;;;7.45;1.75;;;11.90;66.90;;;;;;5030861;28;20103;-70
2021/05/22 00:17:27;;;;;;;6.82;1.50;;;11.90;66.70;;;;;;5027008;28;20033;-70
2021/05/22 00:19:53;;;;;;;8.63;1.90;;;11.90;66.90;;;;;;5023862;28;20128;-73
2021/05/22 00:22:19;;;;;;;9.10;1.88;;;11.80;67.10;;;;;;5027160;28;20045;-71
2021/05/22 00:24:44;;;;;;;8.35;1.73;;;11.80;67.20;;;;;;5035021;28;20423;-70
2021/05/22 00:27:10;;;;;;;7.93;1.67;;;11.80;67.30;;;;;;5020636;28;20133;-70
2021/05/22 00:29:36;;;;;;;7.75;1.75;;;11.80;67.40;;;;;;5021415;28;20033;-70
2021/05/22 00:32:01;;;;;;;8.23;1.90;;;11.80;67.70;;;;;;5023886;28;20029;-72
2021/05/22 00:34:27;;;;;;;12.23;2.20;;;11.90;67.80;;;;;;5017368;28;20037;-72
2021/05/22 00:36:53;;;;;;;12.15;1.98;;;11.80;69.10;;;;;;5021292;28;20044;-71
2021/05/22 00:39:19;;;;;;;5.65;1.52;;;11.80;70.10;;;;;;5021384;28;20049;-71
2021/05/22 00:41:45;;;;;;;9.88;1.98;;;11.80;70.90;;;;;;5028516;28;20045;-70
2021/05/22 00:44:10;;;;;;;6.40;1.60;;;11.60;70.50;;;;;;5021692;28;20476;-70
2021/05/22 00:46:36;;;;;;;8.77;1.85;;;11.60;70.40;;;;;;5024360;28;20040;-70
2021/05/22 00:49:02;;;;;;;6.93;1.45;;;11.60;70.70;;;;;;5033421;28;20040;-72
2021/05/22 00:51:27;;;;;;;9.43;1.63;;;11.60;70.40;;;;;;5020498;28;20092;-70
2021/05/22 00:53:53;;;;;;;7.07;1.67;;;11.60;70.50;;;;;;5021982;28;20052;-71
2021/05/22 00:56:19;;;;;;;6.40;2.35;;;11.60;71.40;;;;;;5027522;28;20038;-71
2021/05/22 00:58:44;;;;;;;13.43;2.63;;;11.60;73.90;;;;;;5031300;28;20053;-71
2021/05/22 01:01:10;;;;;;;11.98;2.88;;;11.60;74.80;;;;;;5026808;28;20053;-70
2021/05/22 01:03:45;;;;;;;11.60;2.10;;;11.50;74.80;;;;;;5015655;28;20084;-71
2021/05/22 01:06:17;;;;;;;8.40;2.15;;;11.40;75.30;;;;;;5020996;28;20041;-70
2021/05/22 01:08:48;;;;;;;8.40;2.08;;;11.40;75.10;;;;;;5029415;28;20447;-71
2021/05/22 01:11:18;;;;;;;8.18;1.60;;;11.30;75.50;;;;;;5008256;28;20026;-71
2021/05/22 01:13:48;;;;;;;7.20;1.83;;;11.20;76.60;;;;;;5030708;28;20065;-71
2021/05/22 01:16:17;;;;;;;9.00;2.28;;;11.20;77.10;;;;;;5025611;28;20444;-71
2021/05/22 01:18:43;;;;;;;8.35;2.22;;;11.10;77.80;;;;;;5025287;28;20083;-70
2021/05/22 01:21:09;;;;;;;7.10;2.30;;;11.10;78.00;;;;;;5023654;28;20425;-71
2021/05/22 01:23:46;;;;;;;7.78;2.30;;;11.00;78.10;;;;;;5028168;28;20465;-71
2021/05/22 01:26:13;;;;;;;9.98;2.17;;;11.00;77.90;;;;;;5025166;28;20132;-72
2021/05/22 01:28:40;;;;;;;8.40;1.98;;;11.10;78.10;;;;;;5028453;28;20136;-71
2021/05/22 01:31:08;;;;;;;8.98;1.98;;;11.00;78.10;;;;;;5029510;28;20045;-71
2021/05/22 01:33:35;;;;;;;8.05;2.33;;;11.00;78.40;;;;;;5030661;28;20056;-71
2021/05/22 01:36:00;;;;;;;7.95;2.05;;;10.90;79.30;;;;;;5023523;28;20036;-73
2021/05/22 01:38:26;;;;;;;7.25;1.95;;;10.90;80.10;;;;;;5023182;28;20029;-71
2021/05/22 01:40:52;;;;;;;5.88;1.80;;;10.90;79.70;;;;;;5016408;28;20046;-71
2021/05/22 01:43:21;;;;;;;8.93;1.90;;;10.90;80.10;;;;;;5009032;28;20511;-71
2021/05/22 01:45:51;;;;;;;10.63;1.90;;;10.80;79.40;;;;;;5017561;28;20085;-71
2021/05/22 01:48:19;;;;;;;7.63;2.08;;;10.90;79.20;;;;;;5008586;28;20030;-71
2021/05/22 01:50:50;;;;;;;8.32;1.90;;;10.80;78.80;;;;;;5002893;28;20029;-72
2021/05/22 01:53:18;;;;;;;9.73;2.45;;;10.90;78.30;;;;;;5007811;28;20034;-71
2021/05/22 01:55:47;;;;;;;6.40;1.90;;;11.00;78.10;;;;;;5001337;28;20044;-71
2021/05/22 01:58:13;;;;;;;10.00;1.80;;;11.00;77.90;;;;;;5005758;28;20026;-71
2021/05/22 02:00:40;;;;;;;7.13;1.70;;;11.00;77.90;;;;;;5008728;28;20062;-71
2021/05/22 02:03:10;;;;;;;6.05;1.90;;;11.00;77.90;;;;;;5004646;28;20060;-71
2021/05/22 02:05:37;;;;;;;6.68;1.83;;;11.00;77.70;;;;;;5026518;28;20116;-71
2021/05/22 02:08:06;;;;;;;8.68;2.00;;;11.00;78.40;;;;;;5032371;28;20103;-70
2021/05/22 02:10:32;;;;;;;10.45;3.00;;;11.00;78.40;;;;;;5027403;28;20049;-71
2021/05/22 02:12:59;;;;;;;7.90;1.90;;;10.90;78.50;;;;;;5026087;28;20041;-71
2021/05/22 02:15:27;;;;;;;8.52;2.10;;;10.90;78.30;;;;;;5023838;28;20116;-71
2021/05/22 02:17:55;;;;;;;7.05;1.75;;;10.90;78.40;;;;;;5020103;28;20034;-71
2021/05/22 02:20:22;;;;;;;7.78;2.20;;;10.90;78.20;;;;;;5012594;28;20485;-71
2021/05/22 02:22:48;;;;;;;8.07;1.90;;;11.00;78.30;;;;;;5027418;28;20049;-71
2021/05/22 02:25:15;;;;;;;12.48;2.60;;;11.00;78.30;;;;;;5027221;28;20029;-71
2021/05/22 02:27:41;;;;;;;9.57;1.80;;;11.00;78.30;;;;;;5029181;28;20079;-71
2021/05/22 02:30:12;;;;;;;10.98;2.30;;;11.00;77.90;;;;;;5028931;28;20034;-71
2021/05/22 02:32:43;;;;;;;9.40;2.03;;;11.00;77.90;;;;;;5026941;28;20118;-71
2021/05/22 02:35:10;;;;;;;7.43;2.03;;;11.10;77.60;;;;;;5028101;28;20112;-71
2021/05/22 02:37:37;;;;;;;9.00;2.40;;;11.10;77.40;;;;;;5025552;28;20052;-71
2021/05/22 02:40:09;;;;;;;8.70;2.10;;;11.10;77.30;;;;;;5028115;28;20049;-72
2021/05/22 02:42:37;;;;;;;7.78;1.88;;;11.10;78.00;;;;;;5024869;28;20029;-70
2021/05/22 02:45:07;;;;;;;9.93;2.13;;;11.10;78.20;;;;;;5023625;28;20033;-71
2021/05/22 02:47:33;;;;;;;7.82;2.30;;;11.10;78.60;;;;;;5024272;28;20045;-71
2021/05/22 02:50:06;;;;;;;10.25;2.50;;;11.00;78.60;;;;;;5023095;28;20069;-71
2021/05/22 02:52:33;;;;;;;8.48;2.22;;;11.00;79.10;;;;;;5003969;28;20034;-71
2021/05/22 02:55:00;;;;;;;9.50;2.20;;;11.00;79.40;;;;;;5003684;28;20078;-72
2021/05/22 02:57:27;;;;;;;9.02;2.30;;;10.90;79.10;;;;;;5014506;28;20057;-71
2021/05/22 02:59:55;;;;;;;11.52;2.92;;;10.90;79.20;;;;;;5024944;28;20056;-71
2021/05/22 03:02:21;;;;;;;10.93;2.50;;;11.00;79.10;;;;;;5011355;28;20037;-70
2021/05/22 03:04:49;;;;;;;8.95;2.15;;;11.00;78.70;;;;;;5022217;28;20326;-70
2021/05/22 03:07:15;;;;;;;10.50;2.60;;;11.00;78.40;;;;;;5015910;28;20073;-71
2021/05/22 03:09:41;;;;;;;11.45;2.45;;;11.00;79.20;;;;;;5029415;28;20112;-71
2021/05/22 03:12:08;;;;;;;11.38;2.85;;;11.00;79.80;;;;;;5027254;28;20646;-70
2021/05/22 03:14:33;;;;;;;9.55;2.45;;;11.00;80.60;;;;;;5026694;28;20026;-70
2021/05/22 03:16:59;;;;;;;13.63;2.70;;;10.90;80.70;;;;;;5023543;28;20037;-71
2021/05/22 03:19:25;;;;;;;8.38;2.38;;;10.80;81.30;;;;;;5022774;28;20034;-70
2021/05/22 03:21:50;;;;;;;11.45;2.60;;;10.90;81.30;;;;;;5016347;28;20041;-70
2021/05/22 03:24:16;;;;;;;13.40;2.90;;;10.90;81.20;;;;;;5017266;28;20033;-70
2021/05/22 03:26:42;;;;;;;11.48;2.50;;;10.80;81.40;;;;;;5000826;28;20402;-69
2021/05/22 03:29:07;;;;;;;10.70;2.78;;;10.80;81.70;;;;;;5006170;28;20034;-70
2021/05/22 03:31:34;;;;;;;9.65;2.38;;;10.80;82.10;;;;;;5005590;28;20030;-70
2021/05/22 03:33:59;;;;;;;10.73;2.83;;;10.80;82.00;;;;;;5006589;28;20045;-73
2021/05/22 03:36:25;;;;;;;12.60;2.67;;;10.80;81.90;;;;;;5024698;28;20033;-70
2021/05/22 03:38:51;;;;;;;12.43;2.75;;;10.70;82.40;;;;;;5027369;28;20114;-71
2021/05/22 03:41:17;;;;;;;12.02;2.80;;;10.70;82.40;;;;;;5026086;28;20037;-70
2021/05/22 03:43:42;;;;;;;11.05;2.35;;;10.70;82.30;;;;;;5009133;28;20061;-70
2021/05/22 03:46:08;;;;;;;12.35;2.72;;;10.80;82.00;;;;;;5038641;28;20037;-70
2021/05/22 03:48:34;;;;;;;9.60;2.35;;;10.70;82.10;;;;;;5024404;28;20592;-70
2021/05/22 03:50:59;;;;;;;8.77;3.05;;;10.70;82.30;;;;;;5033908;28;20029;-71
2021/05/22 03:53:25;;;;;;;11.35;2.63;;;10.80;82.30;;;;;;5033151;28;20036;-70
2021/05/22 03:55:51;;;;;;;10.10;2.30;;;10.70;83.00;;;;;;5024850;28;20473;-70
2021/05/22 03:58:17;;;;;;;12.85;3.83;;;10.70;83.40;;;;;;5017747;28;20368;-70
2021/05/22 04:00:42;;;;;;;13.23;3.33;;;10.60;83.80;;;;;;5012580;28;20091;-70
2021/05/22 04:03:08;;;;;;;11.20;2.90;;;10.70;83.90;;;;;;5028731;28;20029;-70
2021/05/22 04:05:34;;;;;;;12.82;3.47;;;10.60;84.10;;;;;;5031006;28;20607;-70
2021/05/22 04:08:01;;;;;;;12.23;2.85;;;10.70;84.40;;;;;;5026025;28;20132;-70
2021/05/22 04:10:27;;;;;;;10.93;3.28;;;10.60;84.60;;;;;;5026991;28;20493;-70
2021/05/22 04:12:53;;;;;;;12.20;3.55;;;10.60;85.00;;;;;;5030016;28;20025;-70
2021/05/22 04:15:19;;;;;;;11.18;3.42;;;10.50;85.00;;;;;;5029498;28;20044;-70
2021/05/22 04:17:44;;;;;;;11.93;3.45;;;10.50;85.20;;;;;;5008405;28;20481;-70
2021/05/22 04:20:10;;;;;;;9.75;3.20;;;10.60;85.10;;;;;;5019471;28;20464;-70
2021/05/22 04:22:36;;;;;;;12.15;3.30;;;10.60;85.20;;;;;;5012000;28;20096;-69
2021/05/22 04:25:02;;;;;;;10.30;3.58;;;10.60;85.30;;;;;;5026127;28;20030;-71
2021/05/22 04:27:28;;;;;;;10.90;3.40;;;10.60;85.70;;;;;;5030091;28;20044;-69
2021/05/22 04:29:54;;;;;;;14.55;4.28;;;10.50;85.80;;;;;;5028279;28;20029;-69
2021/05/22 04:32:19;;;;;;;12.77;3.72;;;10.50;85.90;;;;;;5027089;28;20057;-70
2021/05/22 04:34:45;;;;;;;11.85;4.30;;;10.50;85.80;;;;;;5029387;28;20026;-70
2021/05/22 04:37:11;;;;;;;11.18;3.78;;;10.60;85.90;;;;;;5029894;28;20034;-70
2021/05/22 04:39:36;;;;;;;11.73;3.50;;;10.50;85.90;;;;;;5013593;28;20508;-70
2021/05/22 04:42:02;;;;;;;14.68;3.60;;;10.50;86.20;;;;;;5017394;28;20022;-72
2021/05/22 04:44:27;;;;;;;13.32;4.03;;;10.50;86.10;;;;;;5008491;28;20030;-70
2021/05/22 04:46:53;;;;;;;10.60;3.85;;;10.60;86.30;;;;;;5019017;28;20038;-71
2021/05/22 04:49:19;;;;;;;12.38;4.10;;;10.60;86.30;;;;;;5020510;28;20131;-70
2021/05/22 04:51:45;;;;;;;11.93;4.25;;;10.50;86.50;;;;;;5022817;28;20469;-71
2021/05/22 04:54:11;;;;;;;14.82;4.35;;;10.50;86.70;;;;;;5000430;28;20034;-70
2021/05/22 04:56:37;;;;;;;12.93;3.97;;;10.50;87.00;;;;;;5001976;28;20425;-70
2021/05/22 04:59:03;;;;;;;14.07;4.57;;;10.50;86.70;;;;;;5003820;28;20057;-71
2021/05/22 05:01:30;;;;;;;13.93;4.20;;;10.40;86.80;;;;;;5008863;28;20037;-70
2021/05/22 05:03:56;;;;;;;13.23;4.50;;;10.40;86.90;;;;;;5009442;28;20030;-73
2021/05/22 05:06:21;;;;;;;11.02;4.40;;;10.50;86.90;;;;;;5008015;28;20046;-71
2021/05/22 05:08:47;;;;;;;9.30;3.97;;;10.50;87.00;;;;;;5011018;28;20037;-71
2021/05/22 05:11:13;;;;;;;13.07;4.22;;;10.40;86.90;;;;;;5021651;28;20386;-70
2021/05/22 05:13:39;;;;;;;12.98;4.72;;;10.40;87.00;;;;;;5026702;28;20543;-71
2021/05/22 05:16:05;;;;;;;12.98;5.47;;;10.40;87.10;;;;;;5021586;28;20048;-71
2021/05/22 05:18:30;;;;;;;12.10;4.47;;;10.40;87.40;;;;;;5023754;28;20029;-70
2021/05/22 05:20:56;;;;;;;13.65;4.57;;;10.40;87.50;;;;;;5022233;28;20042;-71
2021/05/22 05:23:22;;;;;;;13.48;5.30;;;10.50;87.50;;;;;;5021110;28;20389;-71
2021/05/22 05:25:51;;;;;;;7.38;3.90;;;10.50;87.50;;;;;;5020267;28;20404;-70
2021/05/22 05:28:17;;;;;;;14.15;4.05;;;10.50;87.50;;;;;;5022264;28;20044;-71
2021/05/22 05:30:43;;;;;;;12.80;4.97;;;10.50;87.70;;;;;;5026730;28;20037;-70
2021/05/22 05:33:09;;;;;;;10.18;4.22;;;10.40;87.70;;;;;;5024534;28;20034;-70
2021/05/22 05:35:34;;;;;;;10.65;4.20;;;10.40;87.60;;;;;;5024020;28;20161;-70
2021/05/22 05:38:00;;;;;;;10.07;4.18;;;10.40;87.90;;;;;;5020580;28;20041;-70
2021/05/22 05:40:25;;;;;;;11.40;4.18;;;10.40;88.10;;;;;;5015836;28;20437;-70
2021/05/22 05:42:51;;;;;;;8.40;3.53;;;10.40;88.20;;;;;;5021965;28;20045;-70
2021/05/22 05:45:17;;;;;;;13.27;4.70;;;10.40;88.00;;;;;;5019365;28;20144;-70
2021/05/22 05:47:43;;;;;;;9.63;4.13;;;10.50;88.20;;;;;;5022086;28;20056;-71
2021/05/22 05:50:09;;;;;;;10.80;3.90;;;10.50;88.10;;;;;;5022039;28;20176;-71
2021/05/22 05:52:34;;;;;;;7.38;3.10;;;10.60;88.10;;;;;;5020304;28;20026;-70
2021/05/22 05:55:00;;;;;;;10.05;3.78;;;10.60;88.10;;;;;;5017967;28;20029;-71
2021/05/22 05:57:26;;;;;;;10.02;3.97;;;10.60;87.90;;;;;;5016758;28;20550;-70
2021/05/22 05:59:51;;;;;;;9.13;3.20;;;10.50;88.10;;;;;;5015599;28;20121;-70
2021/05/22 06:02:17;;;;;;;10.77;3.67;;;10.50;88.10;;;;;;4994652;28;20079;-71
2021/05/22 06:04:43;;;;;;;9.43;4.00;;;10.50;88.20;;;;;;5002359;28;20037;-70
2021/05/22 06:07:08;;;;;;;11.05;4.65;;;10.50;88.20;;;;;;5006473;28;20091;-70
2021/05/22 06:09:34;;;;;;;8.40;4.20;;;10.50;88.30;;;;;;5008962;28;20398;-71
2021/05/22 06:12:00;;;;;;;10.65;4.50;;;10.50;88.30;;;;;;5019880;28;20053;-70
2021/05/22 06:14:31;;;;;;;10.15;4.25;;;10.60;88.40;;;;;;5018851;28;20474;-71
2021/05/22 06:16:57;;;;;;;9.75;4.13;;;10.60;88.30;;;;;;5018265;28;20481;-70
2021/05/22 06:19:23;;;;;;;8.15;3.92;;;10.60;88.00;;;;;;5013993;28;20029;-70
2021/05/22 06:21:49;;;;;;;10.20;3.90;;;10.60;88.00;;;;;;5027340;28;20041;-70
2021/05/22 06:24:15;;;;;;;11.25;3.70;;;10.60;87.80;;;;;;5022157;28;20701;-71
2021/05/22 06:26:40;;;;;;;9.10;3.50;;;10.70;87.80;;;;;;5015397;28;20538;-72
2021/05/22 06:29:06;;;;;;;9.52;4.13;;;10.80;87.60;;;;;;5001136;28;20037;-68
2021/05/22 06:31:32;;;;;;;7.88;3.70;;;10.80;87.50;;;;;;5009664;28;20363;-69
2021/05/22 06:33:58;;;;;;;10.63;3.80;;;10.80;87.40;;;;;;5022621;28;20038;-68
2021/05/22 06:36:27;;;;;;;9.50;3.50;;;10.80;87.40;;;;;;5014070;28;20065;-68
2021/05/22 06:38:53;;;;;;;10.30;3.38;;;10.70;87.40;;;;;;5017239;28;20040;-69
2021/05/22 06:41:18;;;;;;;10.60;4.40;;;10.80;87.70;;;;;;5013199;28;20030;-68
2021/05/22 06:43:44;;;;;;;8.85;3.92;;;10.80;87.90;;;;;;5025210;28;20034;-68
2021/05/22 06:48:38;;;;;;;9.50;3.85;;;10.80;87.80;;;;;;5026147;28;20054;-67
2021/05/22 06:51:04;;;;;;;12.55;4.45;;;10.80;87.90;;;;;;5024424;28;20032;-68
2021/05/22 06:53:30;;;;;;;12.05;5.82;;;10.90;87.80;;;;;;5018841;28;20042;-68
2021/05/22 06:55:57;;;;;;;11.93;5.18;;;11.00;87.50;;;;;;5017683;28;20500;-67
2021/05/22 06:58:22;;;;;;;13.75;5.53;;;11.10;87.50;;;;;;5014229;28;20049;-68
2021/05/22 07:00:48;;;;;;;11.27;5.22;;;11.10;87.10;;;;;;5013758;28;20033;-67
2021/05/22 07:03:14;;;;;;;11.75;5.03;;;11.20;87.00;;;;;;5017900;28;20041;-68
2021/05/22 07:05:39;;;;;;;8.40;4.03;;;11.20;86.90;;;;;;5019856;28;20042;-69
2021/05/22 07:08:05;;;;;;;8.35;4.22;;;11.30;86.70;;;;;;5016948;28;20042;-69
2021/05/22 07:10:31;;;;;;;8.52;4.10;;;11.30;86.90;;;;;;5019113;28;20030;-68
2021/05/22 07:12:57;;;;;;;12.23;4.65;;;11.30;87.00;;;;;;5023125;28;20040;-68
2021/05/22 07:15:23;;;;;;;12.80;4.65;;;11.20;86.80;;;;;;5018897;28;20056;-68
2021/05/22 07:17:48;;;;;;;13.90;4.78;;;11.20;86.90;;;;;;5020882;28;20029;-68
2021/05/22 07:20:15;;;;;;;7.97;4.03;;;11.30;87.20;;;;;;5018262;28;20033;-68
2021/05/22 07:22:41;;;;;;;10.60;4.18;;;11.30;87.10;;;;;;5021497;28;20033;-68
2021/05/22 07:25:07;;;;;;;9.25;4.25;;;11.40;87.00;;;;;;5017690;28;20044;-67
2021/05/22 07:27:36;;;;;;;11.65;4.47;;;11.50;86.70;;;;;;5019807;28;20107;-67
2021/05/22 07:30:10;;;;;;;9.45;4.07;;;11.40;86.50;;;;;;5018001;28;20496;-68
2021/05/22 07:32:37;;;;;;;11.20;4.63;;;11.40;86.70;;;;;;5011518;28;20106;-67
2021/05/22 07:35:05;;;;;;;8.73;3.45;;;11.30;87.00;;;;;;5002916;28;20030;-67
2021/05/22 07:37:30;;;;;;;7.93;3.90;;;11.30;87.30;;;;;;4999827;28;20038;-68
2021/05/22 07:39:57;;;;;;;7.03;3.10;;;11.50;87.50;;;;;;5013372;28;20440;-68
2021/05/22 07:42:24;;;;;;;9.48;3.17;;;11.60;87.00;;;;;;5019760;28;20077;-68
2021/05/22 07:44:51;;;;;;;11.30;3.83;;;11.60;86.80;;;;;;5020666;28;20398;-69
2021/05/22 07:47:17;;;;;;;8.43;3.42;;;11.60;86.70;;;;;;5020079;28;20115;-68
2021/05/22 07:49:43;;;;;;;7.72;3.10;;;11.60;86.80;;;;;;5019171;28;20623;-69
2021/05/22 07:52:11;;;;;;;7.80;3.10;;;11.60;86.70;;;;;;5004996;28;20037;-68
2021/05/22 07:54:39;;;;;;;10.95;3.65;;;11.60;86.70;;;;;;5012448;28;20374;-69
2021/05/22 07:57:07;;;;;;;10.30;3.75;;;11.70;86.80;;;;;;5015375;28;20029;-70
2021/05/22 07:59:33;;;;;;;10.52;3.80;;;11.80;86.70;;;;;;5020143;28;20072;-69
2021/05/22 08:02:00;;;;;;;9.27;4.10;;;11.80;86.30;;;;;;5017312;28;20076;-69
2021/05/22 08:04:26;;;;;;;10.23;3.90;;;11.70;86.70;;;;;;5022727;28;20064;-70
2021/05/22 08:06:52;;;;;;;9.82;3.75;;;11.80;86.70;;;;;;5013221;28;20058;-69
2021/05/22 08:09:17;;;;;;;8.82;3.75;;;11.80;86.70;;;;;;5019033;28;20025;-69
2021/05/22 08:11:43;;;;;;;8.18;3.20;;;11.80;86.60;;;;;;5008152;28;20585;-68
2021/05/22 08:14:09;;;;;;;9.13;3.90;;;11.90;87.10;;;;;;5017413;28;20046;-69
2021/05/22 08:16:35;;;;;;;10.75;3.72;;;12.10;87.10;;;;;;5014321;28;20038;-69
2021/05/22 08:19:02;;;;;;;8.40;2.97;;;12.40;86.70;;;;;;5018495;28;20033;-69
2021/05/22 08:21:28;;;;;;;11.52;3.08;;;12.60;85.80;;;;;;5015660;28;20488;-69
2021/05/22 08:23:54;;;;;;;8.85;3.50;;;12.70;84.90;;;;;;5016013;28;20049;-69
2021/05/22 08:26:21;;;;;;;9.57;3.20;;;12.70;84.40;;;;;;5020307;28;20083;-68
2021/05/22 08:28:47;;;;;;;7.95;2.92;;;12.70;85.00;;;;;;5016793;28;20038;-69
2021/05/22 08:31:13;;;;;;;8.27;3.00;;;12.60;85.00;;;;;;5018283;28;20022;-70
2021/05/22 08:33:39;;;;;;;7.38;2.95;;;12.60;84.70;;;;;;5016859;28;20037;-70
2021/05/22 08:36:05;;;;;;;10.23;2.88;;;12.60;85.30;;;;;;5014693;28;20083;-68
2021/05/22 08:38:31;;;;;;;11.55;3.38;;;12.60;85.10;;;;;;5011304;28;20400;-70
2021/05/22 08:40:57;;;;;;;10.55;3.22;;;12.70;85.30;;;;;;5022305;28;20042;-68
2021/05/22 08:43:23;;;;;;;12.32;3.80;;;12.70;84.90;;;;;;5024193;28;20056;-70
2021/05/22 08:45:48;;;;;;;9.13;3.03;;;12.60;85.00;;;;;;5024602;28;20036;-67
2021/05/22 08:48:16;;;;;;;13.10;4.22;;;12.50;84.70;;;;;;5022818;28;20030;-66
2021/05/22 08:50:42;;;;;;;11.40;4.30;;;12.40;84.80;;;;;;5026317;28;20495;-68
2021/05/22 08:53:08;;;;;;;11.52;4.38;;;12.50;85.00;;;;;;5000569;28;20026;-70
2021/05/22 08:55:33;;;;;;;12.73;3.78;;;12.50;85.10;;;;;;5004941;28;20057;-68
2021/05/22 08:57:59;;;;;;;12.93;4.57;;;12.60;85.40;;;;;;5022787;28;20032;-67
2021/05/22 09:00:27;;;;;;;18.58;4.50;;;12.40;85.50;;;;;;5018978;28;20490;-69
2021/05/22 09:02:53;;;;;;;15.18;3.90;;;12.50;85.80;;;;;;5000649;28;20014;-68
2021/05/22 09:05:24;;;;;;;12.77;3.58;;;12.60;85.50;;;;;;5010434;28;20071;-68
2021/05/22 09:08:01;;;;;;;10.52;3.90;;;12.50;85.30;;;;;;5024419;28;20041;-68
2021/05/22 09:10:41;;;;;;;11.02;4.05;;;12.50;85.40;;;;;;5024559;28;20481;-69
2021/05/22 09:13:13;;;;;;;10.35;3.30;;;12.60;85.40;;;;;;5026337;28;20399;-69
2021/05/22 09:15:41;;;;;;;10.80;3.60;;;12.60;85.20;;;;;;5015126;28;20044;-68
2021/05/22 09:18:10;;;;;;;12.35;3.90;;;12.70;85.20;;;;;;5022201;28;20079;-68
2021/05/22 09:20:39;;;;;;;7.30;2.75;;;12.70;85.10;;;;;;5025305;28;20100;-68
2021/05/22 09:23:15;;;;;;;10.32;3.30;;;12.70;84.80;;;;;;5030020;28;20087;-68
2021/05/22 09:25:47;;;;;;;12.05;4.50;;;12.50;84.70;;;;;;5022703;28;20416;-68
2021/05/22 09:28:15;;;;;;;10.13;4.25;;;12.30;85.20;;;;;;5011133;28;20401;-68
2021/05/22 09:30:46;;;;;;;12.00;4.18;;;12.20;85.90;;;;;;5015398;28;20105;-68
2021/05/22 09:33:15;;;;;;;10.27;3.67;;;12.20;86.20;;;;;;5017415;28;20049;-68
2021/05/22 09:35:50;;;;;;;11.50;3.42;;;12.20;86.30;;;;;;5023799;28;20022;-69
2021/05/22 09:38:16;;;;;;;8.93;3.88;;;12.20;86.30;;;;;;5016899;28;20026;-68
2021/05/22 09:40:42;;;;;;;10.85;3.88;;;12.30;86.50;;;;;;4997519;28;20488;-68
2021/05/22 09:43:09;;;;;;;11.95;4.78;;;12.30;86.40;;;;;;4992493;28;20370;-71
2021/05/22 09:45:41;;;;;;;16.67;4.25;;;12.20;86.20;;;;;;5014413;28;20058;-68
2021/05/22 09:48:23;;;;;;;10.45;3.72;;;12.20;86.80;;;;;;5016123;28;20116;-69
2021/05/22 09:50:53;;;;;;;13.57;3.80;;;12.30;87.00;;;;;;5026650;28;20120;-69
2021/05/22 09:53:26;;;;;;;12.98;3.90;;;12.30;86.70;;;;;;5010265;28;20038;-68
2021/05/22 09:56:17;;;;;;;12.95;4.80;;;12.50;86.80;;;;;;5026228;28;20500;-69
2021/05/22 09:58:57;;;;;;;12.70;4.05;;;12.60;86.50;;;;;;5030525;28;20497;-68
2021/05/22 10:01:30;;;;;;;11.00;4.72;;;12.90;86.60;;;;;;5014112;28;20038;-69
2021/05/22 10:04:15;;;;;;;9.43;4.00;;;13.00;85.20;;;;;;5003723;28;20076;-68
2021/05/22 10:06:41;;;;;;;9.27;4.38;;;12.90;84.80;;;;;;5031104;28;20053;-70
2021/05/22 10:09:15;;;;;;;8.77;4.25;;;13.10;84.60;;;;;;5017714;28;20034;-69
2021/05/22 10:12:00;;;;;;;9.33;4.23;;;13.10;84.50;;;;;;5026511;28;20038;-68
2021/05/22 10:14:31;;;;;;;8.30;3.63;;;13.20;84.20;;;;;;5007314;28;20069;-68
2021/05/22 10:16:58;;;;;;;10.98;3.53;;;13.20;84.20;;;;;;5007021;28;20068;-70
2021/05/22 10:19:26;;;;;;;8.40;3.55;;;13.30;83.80;;;;;;5004598;28;20029;-69
2021/05/22 10:21:52;;;;;;;10.85;3.80;;;13.20;84.00;;;;;;5023603;28;20032;-69
2021/05/22 10:24:18;;;;;;;12.23;4.15;;;13.20;84.70;;;;;;5014255;28;20108;-69
2021/05/22 10:26:45;;;;;;;8.35;3.53;;;13.20;84.70;;;;;;5016357;28;20481;-68
2021/05/22 10:29:11;;;;;;;9.35;3.65;;;13.30;85.00;;;;;;4998480;28;20075;-69
2021/05/22 10:31:41;;;;;;;9.90;3.67;;;13.40;84.70;;;;;;5003107;28;20045;-68
2021/05/22 10:34:12;;;;;;;9.60;3.90;;;13.50;84.80;;;;;;5016075;28;20038;-70
2021/05/22 10:36:47;;;;;;;11.27;3.72;;;13.60;84.90;;;;;;5012403;28;20367;-69
2021/05/22 10:39:41;;;;;;;8.35;3.67;;;13.60;84.00;;;;;;4998677;28;20133;-69
2021/05/22 10:42:27;;;;;;;9.13;4.57;;;13.60;82.60;;;;;;4997898;28;20485;-69
2021/05/22 10:44:53;;;;;;;3.53;1.30;;;13.20;83.80;;;;;;4987236;28;20045;-68
2021/05/22 10:47:21;;;;;;;2.17;1.20;;;12.30;79.60;;;;;;4993057;28;20385;-69
2021/05/22 10:49:49;;;;;;;2.80;1.13;;;11.70;80.50;;;;;;4997539;28;20045;-69
2021/05/22 10:52:20;;;;;;;2.95;1.20;;;11.50;82.40;;;;;;4999938;28;20099;-69
2021/05/22 10:55:08;;;;;;;2.85;1.95;;;11.40;83.10;;;;;;4998448;28;20030;-69
2021/05/22 10:57:46;;;;;;;5.53;2.60;;;11.40;83.80;;;;;;5018009;28;20041;-69
2021/05/22 11:00:15;;;;;;;5.25;3.35;;;11.30;84.80;;;;;;5006553;28;20077;-68
2021/05/22 11:02:47;;;;;;;7.80;3.80;;;11.40;85.30;;;;;;5025717;28;21289;-69
2021/05/22 11:05:28;;;;;;;7.45;4.93;;;11.50;85.70;;;;;;5007663;28;20034;-70
2021/05/22 11:08:08;;;;;;;8.10;4.60;;;11.60;85.40;;;;;;5016171;28;20060;-69
2021/05/22 11:10:45;;;;;;;8.75;6.35;;;11.70;85.70;;;;;;5017049;28;20048;-70
2021/05/22 11:13:30;;;;;;;8.48;6.40;;;11.90;85.60;;;;;;5014396;28;20072;-69
2021/05/22 11:15:59;;;;;;;9.30;6.68;;;12.00;85.20;;;;;;5016084;28;20099;-69
2021/05/22 11:18:49;;;;;;;9.55;7.25;;;12.10;85.20;;;;;;5016215;28;20473;-69
2021/05/22 11:21:20;;;;;;;8.90;7.40;;;12.30;85.00;;;;;;5012588;28;20034;-69
2021/05/22 11:23:58;;;;;;;8.88;7.18;;;12.60;84.70;;;;;;5021111;28;20430;-69
2021/05/22 11:26:45;;;;;;;9.75;7.85;;;12.60;84.10;;;;;;5011929;28;20420;-71
2021/05/22 11:29:11;;;;;;;9.45;8.32;;;12.60;84.40;;;;;;5017267;28;20481;-70
2021/05/22 11:31:37;;;;;;;10.70;8.70;;;12.60;84.20;;;;;;5019378;28;20044;-69
2021/05/22 11:34:27;;;;;;;8.70;6.55;;;12.60;84.60;;;;;;5011720;28;20038;-69
2021/05/22 11:37:11;;;;;;;7.95;5.93;;;12.50;83.80;;;;;;5013324;28;20123;-69
2021/05/22 11:39:40;;;;;;;10.02;6.78;;;12.40;83.80;;;;;;5011710;28;20073;-69
2021/05/22 11:42:33;;;;;;;7.97;6.70;;;12.60;84.00;;;;;;4996196;28;20030;-69
2021/05/22 11:45:00;;;;;;;7.88;6.90;;;12.70;83.40;;;;;;4997176;28;20072;-69
2021/05/22 11:47:34;;;;;;;10.43;8.48;;;12.70;82.80;;;;;;4994818;28;20046;-68
2021/05/22 11:50:00;;;;;;;10.60;8.32;;;12.70;83.70;;;;;;4997656;28;20048;-68
2021/05/22 11:52:30;;;;;;;10.52;8.20;;;12.90;83.40;;;;;;4993140;28;20034;-68
2021/05/22 11:54:57;;;;;;;9.98;8.18;;;13.10;83.30;;;;;;4995635;28;20030;-69
2021/05/22 11:57:23;;;;;;;10.93;8.77;;;13.10;82.80;;;;;;4995483;28;20092;-71
2021/05/22 11:59:49;;;;;;;11.50;8.70;;;13.10;82.90;;;;;;4995864;28;20041;-71
2021/05/22 12:02:37;;;;;;;11.15;8.60;;;13.10;83.00;;;;;;4995251;28;20042;-69
2021/05/22 12:05:04;;;;;;;10.50;9.38;;;13.00;82.60;;;;;;4997852;28;20026;-69
2021/05/22 12:07:56;;;;;;;10.93;9.68;;;13.10;83.30;;;;;;5000447;28;20050;-70
2021/05/22 12:10:29;;;;;;;11.20;9.63;;;13.30;83.40;;;;;;4997572;28;20095;-69
2021/05/22 12:13:02;;;;;;;11.23;9.20;;;13.40;82.50;;;;;;5015109;28;20043;-69
2021/05/22 12:15:29;;;;;;;12.23;10.13;;;13.40;82.30;;;;;;5000879;28;20474;-69
2021/05/22 12:18:03;;;;;;;10.95;8.77;;;13.40;82.50;;;;;;5000961;28;20049;-70
2021/05/22 12:20:29;;;;;;;12.25;9.77;;;13.10;81.40;;;;;;4999860;28;20042;-69
2021/05/22 12:22:55;;;;;;;9.57;7.80;;;13.10;82.60;;;;;;5001481;28;20101;-69
2021/05/22 12:25:23;;;;;;;14.02;9.80;;;12.80;80.90;;;;;;5013923;28;20487;-69
2021/05/22 12:27:48;;;;;;;15.25;10.82;;;12.80;81.50;;;;;;5004650;28;20048;-68
2021/05/22 12:30:15;;;;;;;12.23;10.38;;;12.70;81.10;;;;;;5007818;28;20117;-69
2021/05/22 12:32:42;;;;;;;11.18;8.90;;;12.80;82.10;;;;;;5003769;28;20076;-70
2021/05/22 12:35:10;;;;;;;9.45;7.95;;;13.00;82.10;;;;;;5005013;28;20026;-70
2021/05/22 12:37:36;;;;;;;8.75;7.68;;;13.10;81.00;;;;;;5004792;28;20040;-69
2021/05/22 12:40:09;;;;;;;8.98;7.47;;;13.20;81.10;;;;;;5024404;28;20033;-69
2021/05/22 12:42:37;;;;;;;9.88;8.57;;;13.60;80.40;;;;;;5002109;28;20065;-68
2021/05/22 12:45:09;;;;;;;10.30;8.00;;;14.00;80.60;;;;;;5029073;28;20033;-69
2021/05/22 12:47:43;;;;;;;9.63;8.43;;;14.10;78.80;;;;;;5022821;28;20037;-69